Time;durP1;ratioP1;P1;durP2;ratioP2;P2;SDS_P1;SDS_P2;PMS_P1;PMS_P2;Temp;Humidity;BMP_temperature;BMP_pressure;BME280_temperature;BME280_humidity;BME280_pressure;Samples;Min_cycle;Max_cycle;Signal;HPM_P1;HPM_P2
2023/01/01 00:01:09;;;;;;;392.10;193.27;;;4.50;99.90;;;;;;5051395;28;20104;-77
2023/01/01 00:03:39;;;;;;;341.45;173.55;;;4.40;99.90;;;;;;5054025;28;20124;-77
2023/01/01 00:06:09;;;;;;;320.25;156.07;;;4.30;99.90;;;;;;5055140;28;20402;-77
2023/01/01 00:08:43;;;;;;;348.70;171.95;;;4.40;99.90;;;;;;5054830;28;20497;-77
2023/01/01 00:14:47;;;;;;;409.50;195.32;;;4.60;99.90;;;;;;5054735;28;20044;-77
2023/01/01 00:18:01;;;;;;;413.08;211.25;;;4.60;99.90;;;;;;5054608;28;20036;-77
2023/01/01 00:20:37;;;;;;;414.98;209.15;;;4.60;99.90;;;;;;5076292;28;20036;-77
2023/01/01 00:23:14;;;;;;;463.95;230.57;;;4.50;99.90;;;;;;5080363;28;20123;-77
2023/01/01 00:25:40;;;;;;;461.67;235.77;;;4.40;99.90;;;;;;5097308;28;20024;-77
2023/01/01 00:28:08;;;;;;;445.80;232.90;;;4.50;99.90;;;;;;5097267;28;20050;-77
2023/01/01 00:34:34;;;;;;;394.25;201.15;;;4.40;99.90;;;;;;5054425;28;20088;-77
2023/01/01 00:37:04;;;;;;;374.40;190.85;;;4.30;99.90;;;;;;5054463;28;20079;-77
2023/01/01 00:39:35;;;;;;;414.80;213.70;;;4.20;99.90;;;;;;5054519;28;20182;-77
2023/01/01 00:42:06;;;;;;;379.25;195.25;;;4.20;99.90;;;;;;5054363;28;20040;-77
2023/01/01 00:44:37;;;;;;;373.98;191.75;;;4.10;99.90;;;;;;5069950;28;20025;-77
2023/01/01 00:47:04;;;;;;;441.10;220.85;;;4.00;99.90;;;;;;5070869;28;20094;-77
2023/01/01 00:49:37;;;;;;;379.02;196.13;;;4.00;99.90;;;;;;5074273;28;20029;-77
2023/01/01 00:52:03;;;;;;;352.25;174.35;;;3.90;99.90;;;;;;5057387;28;20046;-77
2023/01/01 00:54:29;;;;;;;349.65;175.63;;;3.80;99.90;;;;;;5074259;28;20155;-78
2023/01/01 00:56:56;;;;;;;359.05;185.63;;;3.80;99.90;;;;;;5074120;28;20108;-78
2023/01/01 00:59:26;;;;;;;363.92;183.75;;;3.70;99.90;;;;;;5073997;28;20509;-78
2023/01/01 01:01:58;;;;;;;359.38;179.30;;;3.70;99.90;;;;;;5073508;28;20623;-78
2023/01/01 01:04:24;;;;;;;307.48;158.23;;;3.80;99.90;;;;;;5091618;28;20044;-78
2023/01/01 01:06:51;;;;;;;346.73;170.30;;;4.00;99.90;;;;;;5116898;28;20062;-77
2023/01/01 01:09:18;;;;;;;348.77;177.85;;;4.00;99.90;;;;;;5098856;28;20024;-77
2023/01/01 01:11:44;;;;;;;347.33;170.60;;;3.90;99.90;;;;;;5116782;28;20116;-77
2023/01/01 01:14:20;;;;;;;336.35;163.05;;;3.90;99.90;;;;;;5115573;28;20410;-77
2023/01/01 01:17:14;;;;;;;336.42;166.57;;;3.90;99.90;;;;;;5093385;28;20516;-77
2023/01/01 01:23:41;;;;;;;369.55;178.90;;;3.70;99.90;;;;;;5093710;28;20106;-77
2023/01/01 01:26:22;;;;;;;372.20;181.10;;;3.70;99.90;;;;;;5093598;28;20497;-78
2023/01/01 01:28:53;;;;;;;368.23;176.05;;;3.80;99.90;;;;;;5077412;28;20105;-78
2023/01/01 01:31:27;;;;;;;357.77;173.70;;;3.80;99.90;;;;;;5065788;28;20051;-77
2023/01/01 01:37:42;;;;;;;322.83;161.00;;;3.70;99.90;;;;;;5073763;28;20109;-77
2023/01/01 01:40:27;;;;;;;347.25;165.48;;;3.60;99.90;;;;;;5092354;28;20052;-77
2023/01/01 01:47:02;;;;;;;349.02;163.38;;;3.60;99.90;;;;;;5072943;28;20119;-77
2023/01/01 01:49:53;;;;;;;348.25;165.40;;;3.50;99.90;;;;;;5053177;28;20398;-77
2023/01/01 01:52:19;;;;;;;;;;;3.60;99.90;;;;;;5053371;28;20033;-77
2023/01/01 01:54:57;;;;;;;344.92;165.27;;;3.60;99.90;;;;;;5052453;28;20381;-77
2023/01/01 01:57:26;;;;;;;329.33;161.23;;;3.50;99.90;;;;;;5052965;28;20045;-77
2023/01/01 01:59:55;;;;;;;321.20;161.23;;;3.60;99.90;;;;;;5052716;28;20140;-77
2023/01/01 02:02:38;;;;;;;349.20;172.57;;;3.40;99.90;;;;;;5036345;28;20072;-77
2023/01/01 02:05:26;;;;;;;374.02;184.30;;;3.40;99.90;;;;;;5052787;28;20037;-77
2023/01/01 02:07:54;;;;;;;379.85;194.07;;;3.30;99.90;;;;;;5052826;28;20024;-77
2023/01/01 02:10:20;;;;;;;440.25;216.23;;;3.40;99.90;;;;;;5035829;28;20558;-77
2023/01/01 02:16:48;;;;;;;393.00;200.45;;;3.40;99.90;;;;;;5047876;28;20532;-77
2023/01/01 02:20:08;;;;;;;395.73;190.27;;;3.30;99.90;;;;;;5095153;28;20081;-77
2023/01/01 02:27:09;;;;;;;380.63;177.77;;;3.40;99.90;;;;;;5095205;28;20026;-77
2023/01/01 02:30:26;;;;;;;377.73;184.70;;;3.40;99.90;;;;;;5093317;28;20043;-77
2023/01/01 02:38:36;;;;;;;333.80;165.68;;;3.40;99.90;;;;;;5094775;28;20121;-77
2023/01/01 02:41:09;;;;;;;328.70;162.25;;;3.40;99.90;;;;;;5092467;28;20300;-77
2023/01/01 02:43:40;;;;;;;395.65;190.60;;;3.30;99.90;;;;;;5094841;28;20024;-76
2023/01/01 02:46:08;;;;;;;440.55;211.38;;;3.20;99.90;;;;;;5094899;28;20480;-77
2023/01/01 02:48:49;;;;;;;400.58;189.57;;;3.10;99.90;;;;;;5094754;28;20016;-77
2023/01/01 02:51:48;;;;;;;356.80;170.23;;;3.10;99.90;;;;;;5094578;28;20020;-77
2023/01/01 03:01:28;;;;;;;474.67;204.38;;;3.00;99.90;;;;;;5076289;28;20089;-77
2023/01/01 03:04:18;;;;;;;439.05;196.70;;;3.10;99.90;;;;;;5094560;28;20131;-77
2023/01/01 03:10:57;;;;;;;334.48;156.20;;;3.00;99.90;;;;;;5094398;28;20073;-77
2023/01/01 03:14:14;;;;;;;338.38;158.45;;;2.90;99.90;;;;;;5094236;28;20028;-77
2023/01/01 03:17:31;;;;;;;307.23;150.18;;;2.80;99.90;;;;;;5059487;28;20103;-77
2023/01/01 03:20:05;;;;;;;451.85;190.90;;;2.80;99.90;;;;;;5094390;28;20068;-77
2023/01/01 03:22:34;;;;;;;408.42;182.88;;;2.70;99.90;;;;;;5094368;28;20490;-77
2023/01/01 03:25:34;;;;;;;343.87;161.77;;;2.70;99.90;;;;;;5093257;28;20028;-77
2023/01/01 03:28:21;;;;;;;341.75;161.70;;;2.60;99.90;;;;;;5091784;28;20040;-77
2023/01/01 03:30:53;;;;;;;417.00;180.70;;;2.60;99.90;;;;;;5103531;28;20034;-77
2023/01/01 03:33:40;;;;;;;522.10;212.48;;;2.70;99.90;;;;;;5096622;28;20377;-77
2023/01/01 03:39:46;;;;;;;569.33;229.27;;;2.80;99.90;;;;;;5118603;28;20032;-77
2023/01/01 03:42:45;;;;;;;533.03;216.13;;;2.80;99.90;;;;;;5118502;28;20027;-78
2023/01/01 03:45:29;;;;;;;602.13;249.68;;;2.80;99.90;;;;;;5118504;28;20016;-78
2023/01/01 03:47:58;;;;;;;528.95;220.95;;;2.90;99.90;;;;;;5118354;28;20144;-77
2023/01/01 03:55:10;;;;;;;434.27;179.25;;;3.00;99.90;;;;;;5055114;28;20037;-77
2023/01/01 03:58:01;;;;;;;427.45;172.13;;;2.80;99.90;;;;;;5071881;28;20044;-77
2023/01/01 04:04:05;;;;;;;383.48;168.10;;;2.60;99.90;;;;;;5055040;28;20037;-77
2023/01/01 04:06:32;;;;;;;392.88;169.43;;;2.60;99.90;;;;;;5053947;28;20076;-77
2023/01/01 04:09:15;;;;;;;284.52;130.70;;;2.60;99.90;;;;;;5054761;28;20189;-77
2023/01/01 04:12:00;;;;;;;289.83;131.73;;;2.60;99.90;;;;;;5054846;28;20118;-77
2023/01/01 04:14:41;;;;;;;313.25;136.48;;;2.60;99.90;;;;;;5054699;28;20052;-78
2023/01/01 04:17:10;;;;;;;290.10;136.82;;;2.60;99.90;;;;;;5068871;28;20115;-77
2023/01/01 04:19:36;;;;;;;297.40;132.25;;;2.50;99.90;;;;;;5117860;28;20040;-78
2023/01/01 04:22:06;;;;;;;306.15;131.80;;;2.60;99.90;;;;;;5117808;28;20028;-78
2023/01/01 04:28:43;;;;;;;314.50;142.18;;;2.80;99.90;;;;;;5117913;28;20030;-77
2023/01/01 04:31:10;;;;;;;385.38;162.18;;;2.60;99.90;;;;;;5128907;27;20507;-77
2023/01/01 04:33:37;;;;;;;404.50;176.57;;;2.70;99.90;;;;;;5138352;27;20027;-78
2023/01/01 04:36:58;;;;;;;526.80;223.63;;;2.60;99.90;;;;;;5138237;27;20023;-78
2023/01/01 04:39:25;;;;;;;374.58;168.20;;;2.70;99.90;;;;;;5138145;27;20038;-78
2023/01/01 04:41:57;;;;;;;415.98;181.68;;;2.70;99.90;;;;;;5138088;27;20114;-77
2023/01/01 04:44:26;;;;;;;477.75;213.82;;;2.80;99.90;;;;;;5137450;27;20489;-78
2023/01/01 04:54:45;;;;;;;442.98;191.02;;;2.60;99.90;;;;;;5138315;27;20062;-77
2023/01/01 04:57:12;;;;;;;392.15;174.90;;;2.70;99.90;;;;;;5137670;27;20098;-77
2023/01/01 04:59:38;;;;;;;364.65;169.68;;;2.70;99.90;;;;;;5137793;27;20023;-77
2023/01/01 05:02:06;;;;;;;354.83;159.30;;;2.60;99.90;;;;;;5137563;27;20019;-77
2023/01/01 05:04:32;;;;;;;350.88;162.85;;;2.60;99.90;;;;;;5137646;27;20038;-77
2023/01/01 05:07:20;;;;;;;404.88;190.55;;;2.50;99.90;;;;;;5137699;27;20026;-77
2023/01/01 05:09:46;;;;;;;416.75;192.05;;;2.60;99.90;;;;;;5134454;27;20476;-77
2023/01/01 05:12:12;;;;;;;468.05;220.65;;;2.40;99.90;;;;;;5119159;27;20070;-77
2023/01/01 05:14:38;;;;;;;484.85;227.85;;;2.40;99.90;;;;;;5137570;27;20039;-77
2023/01/01 05:17:05;;;;;;;518.92;252.50;;;2.40;99.90;;;;;;5137322;27;20368;-77
2023/01/01 05:19:31;;;;;;;430.65;200.73;;;2.20;99.90;;;;;;5137468;27;20035;-77
2023/01/01 05:21:57;;;;;;;389.23;180.07;;;2.30;99.90;;;;;;5118801;27;20058;-77
2023/01/01 05:24:23;;;;;;;342.63;158.52;;;2.30;99.90;;;;;;5137135;27;20473;-77
2023/01/01 05:26:49;;;;;;;301.23;139.15;;;2.40;99.90;;;;;;5137338;27;20023;-77
2023/01/01 05:29:16;;;;;;;293.02;137.30;;;2.60;99.90;;;;;;5137335;27;20082;-77
2023/01/01 05:31:43;;;;;;;289.92;132.35;;;2.70;99.90;;;;;;5119814;27;20054;-77
2023/01/01 05:34:09;;;;;;;276.00;131.40;;;2.80;99.90;;;;;;5116417;28;20024;-77
2023/01/01 05:36:37;;;;;;;271.02;130.40;;;2.80;99.90;;;;;;5116396;28;20034;-77
2023/01/01 05:39:07;;;;;;;234.07;112.82;;;2.90;99.90;;;;;;5115682;28;20036;-78
2023/01/01 05:41:39;;;;;;;240.50;115.63;;;3.00;99.90;;;;;;5116441;28;20031;-77
2023/01/01 05:44:09;;;;;;;225.43;108.05;;;3.00;99.90;;;;;;5098167;28;20019;-77
2023/01/01 05:46:37;;;;;;;227.02;109.97;;;3.10;99.90;;;;;;5116311;28;20469;-77
2023/01/01 05:49:04;;;;;;;233.35;109.90;;;3.10;99.90;;;;;;5116174;28;20026;-77
2023/01/01 05:51:34;;;;;;;229.07;115.03;;;3.20;99.90;;;;;;5116105;28;20114;-77
2023/01/01 05:54:01;;;;;;;255.90;125.65;;;3.20;99.90;;;;;;5098605;28;20430;-77
2023/01/01 05:56:27;;;;;;;238.65;116.50;;;3.10;99.90;;;;;;5115395;28;20050;-77
2023/01/01 05:58:55;;;;;;;244.85;115.80;;;3.00;99.90;;;;;;5115987;28;20073;-77
2023/01/01 06:01:24;;;;;;;193.45;94.63;;;2.80;99.90;;;;;;5115440;28;20389;-78
2023/01/01 06:03:51;;;;;;;196.35;98.82;;;2.70;99.90;;;;;;5116056;28;20054;-78
2023/01/01 06:06:20;;;;;;;176.90;88.88;;;2.60;99.90;;;;;;5115802;28;20042;-77
2023/01/01 06:08:57;;;;;;;168.20;83.78;;;2.50;99.90;;;;;;5115432;28;20111;-78
2023/01/01 06:15:54;;;;;;;195.60;89.13;;;2.80;99.90;;;;;;5115921;28;20042;-77
2023/01/01 06:18:27;;;;;;;189.07;90.38;;;3.00;99.90;;;;;;5115068;28;20039;-77
2023/01/01 06:24:48;;;;;;;201.02;91.03;;;3.20;99.90;;;;;;5115474;28;20069;-77
2023/01/01 06:28:03;;;;;;;191.10;83.65;;;3.20;99.90;;;;;;5097033;28;20051;-77
2023/01/01 06:34:39;;;;;;;186.10;89.07;;;3.20;99.90;;;;;;5114758;28;20038;-77
2023/01/01 06:37:27;;;;;;;181.20;86.38;;;3.20;99.90;;;;;;5114355;28;20046;-77
2023/01/01 06:44:04;;;;;;;184.88;89.25;;;2.80;99.90;;;;;;5115467;28;20066;-77
2023/01/01 06:54:24;;;;;;;169.02;79.50;;;2.50;99.90;;;;;;5115395;28;20081;-77
2023/01/01 06:56:51;;;;;;;161.87;78.47;;;2.80;99.90;;;;;;5097183;28;20039;-77
2023/01/01 06:59:26;;;;;;;159.00;77.63;;;2.80;99.90;;;;;;5114880;28;20288;-77
2023/01/01 07:05:47;;;;;;;163.68;81.13;;;2.80;99.90;;;;;;5114956;28;20110;-77
2023/01/01 07:08:13;;;;;;;175.68;85.22;;;2.60;99.90;;;;;;5114348;28;20036;-77
2023/01/01 07:11:09;;;;;;;161.00;77.38;;;2.60;99.90;;;;;;5112747;28;20047;-77
2023/01/01 07:14:01;;;;;;;156.95;77.57;;;2.60;99.90;;;;;;5118114;28;20107;-75
2023/01/01 07:25:10;;;;;;;160.90;79.75;;;3.30;99.90;;;;;;5119107;28;20019;-77
2023/01/01 07:27:45;;;;;;;165.27;83.57;;;4.00;99.90;;;;;;5119509;28;20027;-76
2023/01/01 07:30:38;;;;;;;194.82;92.13;;;4.50;99.90;;;;;;5084873;28;20023;-76
2023/01/01 07:33:04;;;;;;;191.02;95.95;;;5.20;99.90;;;;;;5122670;27;20090;-76
2023/01/01 07:45:26;;;;;;;187.73;95.60;;;8.10;99.90;;;;;;5118909;28;20186;-75
2023/01/01 07:48:01;;;;;;;202.88;102.30;;;9.80;95.10;;;;;;5117522;28;20043;-75
2023/01/01 07:50:33;;;;;;;195.32;100.05;;;10.00;93.00;;;;;;5085077;28;20032;-75
2023/01/01 07:53:03;;;;;;;192.63;102.70;;;10.20;91.50;;;;;;5118249;28;20031;-75
2023/01/01 07:55:31;;;;;;;192.98;100.03;;;11.50;89.80;;;;;;5100845;28;20028;-75
2023/01/01 08:01:57;;;;;;;177.88;92.15;;;12.40;76.30;;;;;;5118239;28;20050;-74
2023/01/01 08:05:23;;;;;;;165.07;91.60;;;13.20;74.90;;;;;;5110513;28;20039;-74
2023/01/01 08:11:27;;;;;;;218.52;114.82;;;14.30;72.80;;;;;;5099496;28;20106;-74
2023/01/01 08:17:24;;;;;;;228.27;123.63;;;16.80;61.00;;;;;;5099505;28;20408;-75
2023/01/01 08:34:58;;;;;;;169.20;96.60;;;16.10;57.20;;;;;;5117330;28;20521;-75
2023/01/01 08:38:12;;;;;;;168.65;100.75;;;15.30;61.00;;;;;;5117679;28;20032;-75
2023/01/01 08:41:01;;;;;;;183.35;105.28;;;15.90;60.70;;;;;;5117518;28;20035;-75
2023/01/01 08:43:32;;;;;;;170.13;99.03;;;17.00;58.40;;;;;;5116445;28;20058;-75
2023/01/01 08:46:02;;;;;;;161.00;95.30;;;16.10;59.20;;;;;;5117486;28;20031;-75
2023/01/01 08:48:45;;;;;;;158.65;94.60;;;16.60;59.80;;;;;;5117247;28;20112;-75
2023/01/01 08:55:12;;;;;;;153.70;92.25;;;19.30;53.70;;;;;;5117390;28;20443;-75
2023/01/01 08:57:39;;;;;;;150.85;92.15;;;18.50;53.40;;;;;;5099090;28;20044;-76
2023/01/01 09:00:10;;;;;;;156.70;96.07;;;18.60;54.60;;;;;;5117235;28;20024;-75
2023/01/01 09:06:32;;;;;;;141.77;87.47;;;18.20;55.90;;;;;;5117294;28;20026;-76
2023/01/01 09:09:00;;;;;;;137.93;86.80;;;18.70;54.70;;;;;;5116941;28;20019;-76
2023/01/01 09:11:28;;;;;;;137.60;83.97;;;18.10;56.00;;;;;;5098738;28;20035;-76
2023/01/01 09:13:57;;;;;;;128.55;80.78;;;18.30;54.20;;;;;;5114704;28;20048;-76
2023/01/01 09:16:24;;;;;;;138.43;84.53;;;18.70;53.70;;;;;;5116779;28;20114;-76
2023/01/01 09:18:52;;;;;;;130.13;79.55;;;18.50;53.60;;;;;;5115528;28;20039;-76
2023/01/01 09:21:23;;;;;;;120.75;73.90;;;17.80;55.80;;;;;;5098566;28;20032;-76
2023/01/01 09:28:05;;;;;;;119.05;73.90;;;18.20;55.50;;;;;;5116715;28;20029;-76
2023/01/01 09:30:39;;;;;;;120.25;72.40;;;19.00;55.30;;;;;;5098223;28;20019;-75
2023/01/01 09:33:17;;;;;;;116.65;68.88;;;19.80;53.70;;;;;;5107634;27;20036;-75
2023/01/01 09:35:46;;;;;;;105.43;65.65;;;20.90;50.70;;;;;;5096413;28;20504;-76
2023/01/01 09:42:26;;;;;;;72.03;42.00;;;20.90;49.40;;;;;;5066149;28;20098;-76
2023/01/01 09:44:53;;;;;;;76.82;48.83;;;21.20;49.20;;;;;;5073393;28;20025;-76
2023/01/01 09:47:45;;;;;;;75.07;45.30;;;20.20;52.00;;;;;;5073146;28;20040;-77
2023/01/01 09:50:17;;;;;;;68.72;41.60;;;19.50;53.20;;;;;;5073058;28;20028;-76
2023/01/01 09:53:20;;;;;;;80.13;47.20;;;19.10;53.20;;;;;;5072730;28;20064;-76
2023/01/01 09:59:49;;;;;;;83.57;50.45;;;19.50;52.80;;;;;;5013083;28;20044;-76
2023/01/01 10:02:30;;;;;;;89.90;55.78;;;19.40;53.60;;;;;;5012978;28;20546;-76
2023/01/01 10:05:07;;;;;;;90.30;56.63;;;19.10;54.70;;;;;;5013215;28;20531;-76
2023/01/01 10:08:04;;;;;;;96.97;58.38;;;18.50;57.20;;;;;;5012967;28;20113;-76
2023/01/01 10:14:33;;;;;;;100.43;64.80;;;19.60;54.90;;;;;;5013331;28;20073;-76
2023/01/01 10:17:08;;;;;;;103.30;64.43;;;20.00;54.50;;;;;;5012600;28;20058;-76
2023/01/01 10:19:54;;;;;;;98.78;61.55;;;20.50;53.70;;;;;;5049881;28;20565;-76
2023/01/01 10:22:40;;;;;;;100.53;64.35;;;20.90;52.30;;;;;;5052412;28;20095;-76
2023/01/01 10:29:31;;;;;;;107.53;63.80;;;21.00;51.00;;;;;;5065370;28;20480;-74
2023/01/01 10:32:14;;;;;;;107.30;66.75;;;20.80;50.90;;;;;;5096358;28;20039;-76
2023/01/01 10:38:48;;;;;;;110.53;68.30;;;21.00;50.80;;;;;;5115278;28;20086;-77
2023/01/01 10:41:16;;;;;;;96.18;61.83;;;21.20;50.60;;;;;;5096879;28;20027;-76
2023/01/01 10:43:53;;;;;;;89.13;56.22;;;21.10;50.10;;;;;;5115013;28;20019;-77
2023/01/01 10:46:26;;;;;;;86.65;52.25;;;21.00;49.80;;;;;;5114323;28;20039;-76
2023/01/01 10:49:10;;;;;;;85.95;53.60;;;21.50;49.20;;;;;;5114973;28;20051;-76
2023/01/01 10:51:45;;;;;;;76.72;49.25;;;21.70;48.60;;;;;;5114927;28;20024;-76
2023/01/01 10:54:38;;;;;;;70.15;46.45;;;21.40;48.70;;;;;;5115093;28;20374;-76
2023/01/01 11:01:07;;;;;;;67.82;43.25;;;22.10;47.40;;;;;;5114872;28;20077;-76
2023/01/01 11:04:11;;;;;;;55.35;36.95;;;22.60;46.10;;;;;;5114900;28;20028;-75
2023/01/01 11:06:45;;;;;;;50.97;30.30;;;22.40;44.60;;;;;;5114962;28;20090;-76
2023/01/01 11:09:30;;;;;;;45.33;28.23;;;22.80;44.30;;;;;;5114819;28;20032;-75
2023/01/01 11:15:53;;;;;;;49.40;32.67;;;23.00;44.80;;;;;;5114686;28;20085;-76
2023/01/01 11:18:44;;;;;;;38.05;24.00;;;23.70;42.80;;;;;;5096684;28;20059;-76
2023/01/01 11:21:24;;;;;;;36.33;21.30;;;24.00;40.90;;;;;;5112052;28;20330;-76
2023/01/01 11:24:33;;;;;;;26.52;17.50;;;23.20;42.30;;;;;;5064221;28;20039;-76
2023/01/01 11:31:44;;;;;;;28.90;19.10;;;24.00;39.90;;;;;;5128186;28;20554;-76
2023/01/01 11:34:42;;;;;;;29.38;20.33;;;24.00;39.50;;;;;;5132809;27;20035;-76
2023/01/01 11:38:14;;;;;;;34.67;21.95;;;24.00;39.80;;;;;;5114253;28;20027;-76
2023/01/01 11:40:46;;;;;;;32.70;20.23;;;24.40;39.30;;;;;;5096204;28;20028;-76
2023/01/01 11:43:22;;;;;;;41.55;21.88;;;23.90;40.40;;;;;;5114469;28;20035;-76
2023/01/01 11:46:00;;;;;;;40.60;22.60;;;24.00;39.80;;;;;;5114731;28;20492;-75
2023/01/01 11:48:30;;;;;;;39.67;22.58;;;24.30;39.40;;;;;;5114147;28;20085;-76
2023/01/01 11:51:26;;;;;;;34.73;23.03;;;24.10;41.40;;;;;;5114231;28;20030;-76
2023/01/01 11:54:19;;;;;;;36.17;21.98;;;24.50;39.00;;;;;;5114422;28;20055;-75
2023/01/01 11:56:49;;;;;;;38.72;22.23;;;24.70;38.40;;;;;;5114607;28;20024;-76
2023/01/01 11:59:22;;;;;;;36.65;21.90;;;24.40;39.50;;;;;;5116847;28;20471;-76
2023/01/01 12:01:55;;;;;;;41.20;24.48;;;24.60;38.40;;;;;;5118282;28;20070;-76
2023/01/01 12:04:44;;;;;;;36.90;24.58;;;24.60;38.40;;;;;;5117041;28;20042;-76
2023/01/01 12:07:16;;;;;;;41.35;24.75;;;24.70;38.70;;;;;;5118119;28;20100;-76
2023/01/01 12:10:14;;;;;;;36.88;24.58;;;24.40;39.30;;;;;;5116879;28;20504;-76
2023/01/01 12:12:59;;;;;;;38.70;25.80;;;24.50;38.80;;;;;;5116894;28;20044;-76
2023/01/01 12:15:44;;;;;;;38.53;24.90;;;24.60;38.20;;;;;;5118137;28;20385;-76
2023/01/01 12:18:19;;;;;;;39.53;26.63;;;24.30;40.60;;;;;;5099764;28;20434;-76
2023/01/01 12:21:10;;;;;;;40.40;26.15;;;24.20;39.90;;;;;;5117884;28;20469;-76
2023/01/01 12:23:37;;;;;;;48.70;28.60;;;24.30;39.70;;;;;;5117772;28;20027;-76
2023/01/01 12:26:22;;;;;;;39.17;24.48;;;24.40;39.60;;;;;;5117882;28;20062;-76
2023/01/01 12:29:23;;;;;;;31.83;19.92;;;24.50;40.00;;;;;;5118067;28;20389;-76
2023/01/01 12:32:20;;;;;;;52.75;33.65;;;25.10;37.80;;;;;;5099846;28;20035;-76
2023/01/01 12:35:04;;;;;;;63.05;39.45;;;25.50;37.20;;;;;;5097081;28;20063;-76
2023/01/01 12:41:13;;;;;;;68.18;38.58;;;24.70;37.90;;;;;;5097048;28;20064;-76
2023/01/01 12:43:58;;;;;;;71.25;41.63;;;23.90;38.20;;;;;;5097044;28;20028;-77
2023/01/01 12:50:47;;;;;;;76.38;43.13;;;22.90;40.30;;;;;;5097116;28;20031;-76
2023/01/01 12:53:41;;;;;;;72.30;40.08;;;22.80;41.20;;;;;;5096871;28;20039;-76
2023/01/01 12:56:10;;;;;;;72.35;39.78;;;22.90;40.30;;;;;;5094345;28;20043;-76
2023/01/01 12:58:44;;;;;;;65.72;38.17;;;22.80;41.00;;;;;;5096714;28;20093;-76
2023/01/01 13:05:40;;;;;;;62.75;34.72;;;23.10;41.30;;;;;;5096832;28;20031;-76
2023/01/01 13:08:41;;;;;;;55.83;31.02;;;23.10;40.40;;;;;;5114509;28;20032;-76
2023/01/01 13:14:49;;;;;;;65.78;33.75;;;22.50;40.60;;;;;;5116712;28;20067;-76
2023/01/01 13:17:29;;;;;;;61.97;31.45;;;22.20;42.00;;;;;;5116586;28;20576;-76
2023/01/01 13:20:25;;;;;;;58.85;29.60;;;22.20;42.30;;;;;;5116761;28;20158;-77
2023/01/01 13:22:53;;;;;;;61.08;29.60;;;21.90;41.60;;;;;;5116584;28;20072;-76
2023/01/01 13:25:30;;;;;;;65.97;31.55;;;21.70;41.90;;;;;;5116582;28;20042;-76
2023/01/01 13:28:04;;;;;;;67.47;35.72;;;21.50;42.30;;;;;;5116539;28;20031;-76
2023/01/01 13:34:34;;;;;;;88.22;40.13;;;21.70;43.30;;;;;;5116233;28;20093;-76
2023/01/01 13:37:09;;;;;;;74.05;37.70;;;22.10;43.40;;;;;;5116427;28;20035;-76
2023/01/01 13:40:01;;;;;;;77.88;37.40;;;22.00;42.90;;;;;;5116472;28;20380;-76
2023/01/01 13:42:50;;;;;;;69.90;37.03;;;21.70;44.00;;;;;;5116298;28;20023;-76
2023/01/01 13:49:03;;;;;;;68.93;35.47;;;21.80;45.40;;;;;;5116090;28;20110;-76
2023/01/01 13:51:53;;;;;;;65.10;34.47;;;21.60;45.20;;;;;;5116070;28;20252;-76
2023/01/01 13:54:47;;;;;;;67.22;32.78;;;21.40;45.90;;;;;;5116162;28;20036;-76
2023/01/01 13:57:42;;;;;;;58.67;33.83;;;21.60;45.80;;;;;;5116072;28;20035;-76
2023/01/01 14:03:55;;;;;;;79.85;42.50;;;22.00;44.90;;;;;;5115864;28;20032;-76
2023/01/01 14:06:36;;;;;;;66.38;36.50;;;22.10;44.50;;;;;;5115846;28;20465;-76
2023/01/01 14:09:08;;;;;;;67.28;32.97;;;22.40;43.80;;;;;;5115704;28;20038;-76
2023/01/01 14:11:35;;;;;;;62.53;32.50;;;22.80;42.60;;;;;;5115909;28;20027;-76
2023/01/01 14:14:01;;;;;;;56.50;30.23;;;23.20;41.70;;;;;;5115810;28;20015;-76
2023/01/01 14:16:27;;;;;;;48.47;26.35;;;23.40;40.80;;;;;;5115741;28;20027;-77
2023/01/01 14:18:57;;;;;;;48.13;25.05;;;23.60;40.10;;;;;;5115569;28;20396;-76
2023/01/01 14:21:30;;;;;;;42.83;24.13;;;23.50;40.00;;;;;;5114899;28;20047;-76
2023/01/01 14:24:01;;;;;;;47.30;22.52;;;23.30;40.10;;;;;;5115556;28;20514;-76
2023/01/01 14:26:29;;;;;;;102.65;47.40;;;23.20;41.00;;;;;;5115587;28;20031;-76
2023/01/01 14:29:02;;;;;;;136.25;64.72;;;22.60;42.60;;;;;;5097286;28;20477;-76
2023/01/01 14:31:32;;;;;;;154.40;72.47;;;22.00;44.00;;;;;;5097281;28;20043;-76
2023/01/01 14:34:00;;;;;;;;;;;21.80;45.20;;;;;;5115879;28;20069;-76
2023/01/01 14:36:29;;;;;;;195.10;94.55;;;21.40;46.70;;;;;;5115225;28;20006;-76
2023/01/01 14:38:59;;;;;;;182.50;92.20;;;21.10;47.00;;;;;;5115358;28;20484;-76
2023/01/01 14:41:31;;;;;;;169.68;80.35;;;20.90;47.90;;;;;;5115303;28;20083;-76
2023/01/01 14:44:15;;;;;;;171.15;84.50;;;20.80;47.80;;;;;;5115133;28;20172;-76
2023/01/01 14:46:48;;;;;;;144.23;74.57;;;20.90;47.30;;;;;;5115111;28;20161;-76
2023/01/01 14:49:27;;;;;;;138.45;66.20;;;20.70;47.60;;;;;;5115144;28;20024;-77
2023/01/01 14:52:26;;;;;;;118.13;58.55;;;20.90;48.10;;;;;;5115122;28;20157;-77
2023/01/01 14:54:54;;;;;;;127.68;62.45;;;19.70;49.60;;;;;;5105665;28;20092;-77
2023/01/01 14:57:24;;;;;;;151.05;72.82;;;18.90;52.20;;;;;;5115164;28;20110;-77
2023/01/01 14:59:55;;;;;;;148.35;74.35;;;17.90;54.10;;;;;;5114900;28;20055;-76
2023/01/01 15:02:27;;;;;;;153.00;75.72;;;17.50;55.60;;;;;;5114975;28;20176;-77
2023/01/01 15:04:54;;;;;;;119.50;58.00;;;16.80;57.70;;;;;;5115164;28;20122;-76
2023/01/01 15:07:20;;;;;;;99.85;52.55;;;16.20;58.80;;;;;;5114980;28;20027;-77
2023/01/01 15:09:46;;;;;;;101.72;48.83;;;15.90;60.10;;;;;;5114869;28;20024;-76
2023/01/01 15:12:19;;;;;;;92.88;46.10;;;15.30;61.30;;;;;;5114984;28;20028;-76
2023/01/01 15:15:06;;;;;;;89.13;46.03;;;14.90;63.10;;;;;;5114937;28;20027;-77
2023/01/01 15:17:45;;;;;;;83.38;41.95;;;14.70;64.70;;;;;;5112271;28;20039;-76
2023/01/01 15:20:20;;;;;;;90.88;47.45;;;14.60;64.60;;;;;;5114731;28;20026;-76
2023/01/01 15:22:47;;;;;;;132.38;63.30;;;14.40;64.80;;;;;;5114830;28;20227;-77
2023/01/01 15:25:15;;;;;;;111.10;53.90;;;13.90;66.70;;;;;;5114883;28;20034;-76
2023/01/01 15:27:43;;;;;;;96.45;44.28;;;13.40;69.60;;;;;;5114918;28;20089;-77
2023/01/01 15:30:32;;;;;;;112.78;56.65;;;13.00;71.70;;;;;;5114633;28;20491;-76
2023/01/01 15:33:13;;;;;;;81.75;39.13;;;12.70;74.60;;;;;;5115406;28;20024;-77
2023/01/01 15:35:39;;;;;;;112.63;54.33;;;12.60;76.30;;;;;;5118603;28;20050;-76
2023/01/01 15:38:33;;;;;;;107.32;51.63;;;12.40;80.20;;;;;;5100602;28;20497;-76
2023/01/01 15:41:00;;;;;;;76.75;39.63;;;12.10;85.10;;;;;;5114776;28;20044;-76
2023/01/01 15:44:10;;;;;;;60.70;33.28;;;11.90;90.00;;;;;;5118774;28;20047;-76
2023/01/01 15:47:13;;;;;;;267.85;102.90;;;11.90;91.60;;;;;;5118527;28;20022;-76
2023/01/01 15:49:47;;;;;;;355.58;129.13;;;11.70;93.50;;;;;;5117907;28;20035;-76
2023/01/01 15:52:28;;;;;;;378.17;145.48;;;11.70;95.30;;;;;;5118424;28;20028;-76
2023/01/01 15:54:55;;;;;;;312.70;121.50;;;11.50;96.40;;;;;;5118568;28;20036;-77
2023/01/01 15:57:23;;;;;;;160.02;73.03;;;11.40;97.70;;;;;;5118301;28;20040;-77
2023/01/01 15:59:52;;;;;;;131.38;64.03;;;11.20;98.10;;;;;;5118310;28;20024;-76
2023/01/01 16:02:30;;;;;;;133.45;67.78;;;11.00;99.90;;;;;;5118311;28;20024;-76
2023/01/01 16:04:58;;;;;;;116.55;57.83;;;10.90;99.90;;;;;;5117355;28;20099;-76
2023/01/01 16:07:33;;;;;;;106.55;54.75;;;10.80;99.90;;;;;;5118195;28;20487;-77
2023/01/01 16:10:18;;;;;;;95.93;50.80;;;10.70;99.90;;;;;;5118307;28;20016;-76
2023/01/01 16:12:49;;;;;;;125.45;62.58;;;10.40;99.90;;;;;;5117983;28;20091;-77
2023/01/01 16:19:40;;;;;;;120.07;62.00;;;10.30;99.90;;;;;;5118180;28;20054;-77
2023/01/01 16:22:27;;;;;;;200.13;90.55;;;10.00;99.90;;;;;;5115086;28;20032;-77
2023/01/01 16:24:56;;;;;;;230.98;103.97;;;9.80;99.90;;;;;;5116801;28;20039;-77
2023/01/01 16:28:14;;;;;;;214.68;92.80;;;9.50;99.90;;;;;;5025509;28;20065;-77
2023/01/01 16:31:16;;;;;;;219.40;94.22;;;9.50;99.90;;;;;;5042330;28;20028;-77
2023/01/01 16:33:44;;;;;;;243.63;105.95;;;9.40;99.90;;;;;;5038013;28;20040;-77
2023/01/01 16:36:21;;;;;;;290.77;126.80;;;9.30;99.90;;;;;;5054227;28;20045;-77
2023/01/01 16:38:47;;;;;;;284.85;116.88;;;9.30;99.90;;;;;;5054055;28;20041;-77
2023/01/01 16:41:16;;;;;;;203.80;90.35;;;9.20;99.90;;;;;;5054320;28;20033;-77
2023/01/01 16:44:00;;;;;;;173.88;79.63;;;9.10;99.90;;;;;;5054187;28;20099;-77
2023/01/01 16:50:31;;;;;;;222.35;113.45;;;9.10;99.90;;;;;;5054522;28;20055;-77